createdAt,value
2017-07-31T05:31:17.614Z,19.47
2017-07-31T05:31:43.107Z,19.45
2017-07-31T05:32:08.569Z,19.41
2017-07-31T05:32:34.038Z,19.49
2017-07-31T05:32:59.504Z,19.48
2017-07-31T05:33:24.991Z,19.45
2017-07-31T05:33:50.438Z,19.44
2017-07-31T05:34:15.887Z,19.49
2017-07-31T05:34:41.339Z,19.45
2017-07-31T05:35:06.800Z,19.49
2017-07-31T05:35:32.279Z,19.45
2017-07-31T05:35:57.730Z,19.51
2017-07-31T05:36:23.188Z,19.51
2017-07-31T05:36:48.656Z,19.54
2017-07-31T05:37:14.137Z,19.51
2017-07-31T05:37:39.580Z,19.49
2017-07-31T05:38:05.050Z,19.54
2017-07-31T05:38:30.525Z,19.55
2017-07-31T05:38:55.973Z,19.56
2017-07-31T05:39:21.467Z,19.58
2017-07-31T05:39:46.962Z,19.64
2017-07-31T05:40:12.430Z,19.64
2017-07-31T05:40:37.895Z,19.59
2017-07-31T05:41:03.340Z,19.63
2017-07-31T05:41:28.804Z,19.71
2017-07-31T05:41:54.273Z,19.73
2017-07-31T05:42:19.724Z,19.77
2017-07-31T05:42:45.190Z,19.76
2017-07-31T05:43:10.690Z,19.81
2017-07-31T05:43:36.132Z,19.82
2017-07-31T05:44:01.602Z,19.88
2017-07-31T05:44:27.076Z,19.89
2017-07-31T05:44:52.553Z,19.94
2017-07-31T05:45:18.046Z,19.96
2017-07-31T05:45:43.502Z,19.91
2017-07-31T05:46:08.960Z,19.95
2017-07-31T05:46:34.459Z,19.95
2017-07-31T05:46:59.899Z,20
2017-07-31T05:47:25.431Z,19.94
2017-07-31T05:47:50.933Z,19.95
2017-07-31T05:48:16.387Z,19.95
2017-07-31T05:48:41.843Z,20.03
2017-07-31T05:49:07.340Z,19.94
2017-07-31T05:49:32.839Z,19.92
2017-07-31T05:49:58.316Z,19.94
2017-07-31T05:50:23.781Z,19.88
2017-07-31T05:50:49.240Z,19.82
2017-07-31T05:51:14.708Z,19.86
2017-07-31T05:51:40.215Z,19.88
2017-07-31T05:52:05.678Z,19.88
2017-07-31T05:52:31.158Z,19.89
2017-07-31T05:52:56.611Z,19.86
2017-07-31T05:53:22.110Z,19.89
2017-07-31T05:53:47.576Z,19.88
2017-07-31T05:54:13.035Z,19.89
2017-07-31T05:54:38.511Z,19.82
2017-07-31T05:55:03.990Z,19.82
2017-07-31T05:55:29.478Z,19.81
2017-07-31T05:55:55.013Z,19.77
2017-07-31T05:56:20.535Z,19.88
2017-07-31T05:56:46.018Z,19.84
2017-07-31T05:57:11.547Z,19.84
2017-07-31T05:57:37.029Z,19.79
2017-07-31T05:58:02.533Z,19.73
2017-07-31T05:58:28.013Z,19.82
2017-07-31T05:58:53.525Z,19.81
2017-07-31T05:59:18.936Z,19.82
2017-07-31T05:59:44.459Z,19.85
2017-07-31T06:00:09.995Z,19.84
2017-07-31T06:00:35.453Z,19.89
2017-07-31T06:01:00.949Z,19.89
2017-07-31T06:01:26.416Z,19.99
2017-07-31T06:01:51.891Z,20.04
2017-07-31T06:02:17.375Z,19.95
2017-07-31T06:02:42.853Z,20.03
2017-07-31T06:03:08.277Z,20.07
2017-07-31T06:03:33.767Z,20.1
2017-07-31T06:03:59.260Z,20.11
2017-07-31T06:04:24.717Z,20.18
2017-07-31T06:04:50.224Z,20.13
2017-07-31T06:05:15.726Z,20.21
2017-07-31T06:05:41.237Z,20.25
2017-07-31T06:06:06.735Z,20.34
2017-07-31T06:06:32.244Z,20.26
2017-07-31T06:06:57.693Z,20.39
2017-07-31T06:07:23.163Z,20.4
2017-07-31T06:07:48.662Z,20.37
2017-07-31T06:08:14.183Z,20.4
2017-07-31T06:08:39.649Z,20.44
2017-07-31T06:09:05.138Z,20.52
2017-07-31T06:09:30.622Z,20.5
2017-07-31T06:09:56.094Z,20.48
2017-07-31T06:10:21.554Z,20.48
2017-07-31T06:10:47.024Z,20.55
2017-07-31T06:11:12.490Z,20.59
2017-07-31T06:11:37.988Z,20.66
2017-07-31T06:12:03.467Z,20.63
2017-07-31T06:12:28.945Z,20.69
2017-07-31T06:12:54.411Z,20.69
2017-07-31T06:13:19.890Z,20.7
2017-07-31T06:13:45.374Z,20.67
2017-07-31T06:14:10.866Z,20.69
2017-07-31T06:14:36.364Z,20.75
2017-07-31T06:15:01.861Z,20.75
2017-07-31T06:15:27.373Z,20.66
2017-07-31T06:15:52.800Z,20.72
2017-07-31T06:16:18.285Z,20.74
2017-07-31T06:16:43.776Z,20.72
2017-07-31T06:17:09.252Z,20.77
2017-07-31T06:17:34.718Z,20.7
2017-07-31T06:18:00.176Z,20.69
2017-07-31T06:18:25.666Z,20.69
2017-07-31T06:18:51.142Z,20.75
2017-07-31T06:19:16.627Z,20.81
2017-07-31T06:19:42.084Z,20.81
2017-07-31T06:20:07.569Z,20.78
2017-07-31T06:20:33.027Z,20.81
2017-07-31T06:20:58.511Z,20.88
2017-07-31T06:21:24.019Z,20.8
2017-07-31T06:21:49.441Z,20.82
2017-07-31T06:22:14.915Z,20.9
2017-07-31T06:22:40.363Z,20.87
2017-07-31T06:23:05.817Z,20.9
2017-07-31T06:23:31.303Z,20.96
2017-07-31T06:23:56.802Z,20.84
2017-07-31T06:24:22.298Z,20.92
2017-07-31T06:24:47.796Z,20.93
2017-07-31T06:25:13.272Z,20.84
2017-07-31T06:25:38.783Z,20.92
2017-07-31T06:26:04.234Z,20.93
2017-07-31T06:26:29.697Z,20.9
2017-07-31T06:26:55.236Z,20.92
2017-07-31T06:27:20.710Z,20.96
2017-07-31T06:27:46.171Z,20.97
2017-07-31T06:28:11.638Z,20.92
2017-07-31T06:28:37.113Z,20.92
2017-07-31T06:29:02.610Z,20.87
2017-07-31T06:29:28.101Z,20.99
2017-07-31T06:29:53.574Z,20.99
2017-07-31T06:30:19.062Z,20.99
2017-07-31T06:30:44.553Z,20.93
2017-07-31T06:31:10.073Z,20.96
2017-07-31T06:31:35.594Z,20.95
2017-07-31T06:32:01.079Z,21.02
2017-07-31T06:32:26.572Z,21.03
2017-07-31T06:32:52.083Z,21
2017-07-31T06:33:17.601Z,21.02
2017-07-31T06:33:43.138Z,21.12
2017-07-31T06:34:08.633Z,21.02
2017-07-31T06:34:34.103Z,20.92
2017-07-31T06:34:59.573Z,20.96
2017-07-31T06:35:25.091Z,20.99
2017-07-31T06:35:50.579Z,20.96
2017-07-31T06:36:16.078Z,21.05
2017-07-31T06:36:41.533Z,20.96
2017-07-31T06:37:07.031Z,20.9
2017-07-31T06:37:32.564Z,20.95
2017-07-31T06:37:58.041Z,20.97
2017-07-31T06:38:23.566Z,20.92
2017-07-31T06:38:49.060Z,20.88
2017-07-31T06:39:14.532Z,20.97
2017-07-31T06:39:40.018Z,20.96
2017-07-31T06:40:05.468Z,20.88
2017-07-31T06:40:30.942Z,20.97
2017-07-31T06:40:56.427Z,20.97
2017-07-31T06:41:21.955Z,21.05
2017-07-31T06:41:47.418Z,21.07
2017-07-31T06:42:12.865Z,21.06
2017-07-31T06:42:38.342Z,21.03
2017-07-31T06:43:03.834Z,21.12
2017-07-31T06:43:29.301Z,21.05
2017-07-31T06:43:54.781Z,21.05
2017-07-31T06:44:20.280Z,21.06
2017-07-31T06:44:45.770Z,21.11
2017-07-31T06:45:11.262Z,21.07
2017-07-31T06:45:36.779Z,21.2
2017-07-31T06:46:02.265Z,21.14
2017-07-31T06:46:27.772Z,21.24
2017-07-31T06:46:53.244Z,21.14
2017-07-31T06:47:18.691Z,21.2
2017-07-31T06:47:44.137Z,21.22
2017-07-31T06:48:09.639Z,21.25
2017-07-31T06:48:35.110Z,21.25
2017-07-31T06:49:00.580Z,21.25
2017-07-31T06:49:26.092Z,21.29
2017-07-31T06:49:51.596Z,21.36
2017-07-31T06:50:17.078Z,21.37
2017-07-31T06:50:42.543Z,21.42
2017-07-31T06:51:08.038Z,21.35
2017-07-31T06:51:33.515Z,21.45
2017-07-31T06:51:58.979Z,21.42
2017-07-31T06:52:24.454Z,21.46
2017-07-31T06:52:49.931Z,21.43
2017-07-31T06:53:15.443Z,21.5
2017-07-31T06:53:40.933Z,21.48
2017-07-31T06:54:06.399Z,21.61
2017-07-31T06:54:31.905Z,21.54
2017-07-31T06:54:57.395Z,21.54
2017-07-31T06:55:22.886Z,21.62
2017-07-31T06:55:48.385Z,21.66
2017-07-31T06:56:13.902Z,21.64
2017-07-31T06:56:39.428Z,21.7
2017-07-31T06:57:04.892Z,21.77
2017-07-31T06:57:30.391Z,21.76
2017-07-31T06:57:55.887Z,21.82
2017-07-31T06:58:21.372Z,21.85
2017-07-31T06:58:46.828Z,21.85
2017-07-31T06:59:12.307Z,21.85
2017-07-31T06:59:37.803Z,21.88
2017-07-31T07:00:03.304Z,21.92
2017-07-31T07:00:28.785Z,21.95
2017-07-31T07:00:54.212Z,21.89
2017-07-31T07:01:19.688Z,21.92
2017-07-31T07:01:45.203Z,21.88
2017-07-31T07:02:10.768Z,21.92
2017-07-31T07:02:36.231Z,21.85
2017-07-31T07:03:01.698Z,21.92
2017-07-31T07:03:27.206Z,21.91
2017-07-31T07:03:52.682Z,21.88
2017-07-31T07:04:18.148Z,21.91
2017-07-31T07:04:43.584Z,21.83
2017-07-31T07:05:09.073Z,21.95
2017-07-31T07:05:34.570Z,21.89
2017-07-31T07:06:00.056Z,21.92
2017-07-31T07:06:25.565Z,21.88
2017-07-31T07:06:51.027Z,21.95
2017-07-31T07:07:16.535Z,21.92
2017-07-31T07:07:42.045Z,21.99
2017-07-31T07:08:07.539Z,21.93
2017-07-31T07:08:33.035Z,21.96
2017-07-31T07:08:58.518Z,21.92
2017-07-31T07:09:24.010Z,21.95
2017-07-31T07:09:49.530Z,21.88
2017-07-31T07:10:15.008Z,21.95
2017-07-31T07:10:40.460Z,21.88
2017-07-31T07:11:05.980Z,21.95
2017-07-31T07:11:31.463Z,21.83
2017-07-31T07:11:56.930Z,21.95
2017-07-31T07:12:22.438Z,21.93
2017-07-31T07:12:47.920Z,21.92
2017-07-31T07:13:13.411Z,21.96
2017-07-31T07:13:38.884Z,22.04
2017-07-31T07:14:04.352Z,22.06
2017-07-31T07:14:29.832Z,22.04
2017-07-31T07:14:55.308Z,22.02
2017-07-31T07:15:20.797Z,22.11
2017-07-31T07:15:46.267Z,22.17
2017-07-31T07:16:11.743Z,22.2
2017-07-31T07:16:37.197Z,22.14
2017-07-31T07:17:02.692Z,22.23
2017-07-31T07:17:28.127Z,22.13
2017-07-31T07:17:53.579Z,22.17
2017-07-31T07:18:19.057Z,22.22
2017-07-31T07:18:44.547Z,22.23
2017-07-31T07:19:10.031Z,22.26
2017-07-31T07:19:35.499Z,22.23
2017-07-31T07:20:00.966Z,22.26
2017-07-31T07:20:26.460Z,22.23
2017-07-31T07:20:51.903Z,22.22
2017-07-31T07:21:17.387Z,22.23
2017-07-31T07:21:42.851Z,22.23
2017-07-31T07:22:08.347Z,22.28
2017-07-31T07:22:33.877Z,22.28
2017-07-31T07:22:59.371Z,22.32
2017-07-31T07:23:24.862Z,22.36
2017-07-31T07:23:50.346Z,22.39
2017-07-31T07:24:15.839Z,22.39
2017-07-31T07:24:41.318Z,22.39
2017-07-31T07:25:06.811Z,22.39
2017-07-31T07:25:32.300Z,22.43
2017-07-31T07:25:57.842Z,22.38
2017-07-31T07:26:23.348Z,22.5
2017-07-31T07:26:48.797Z,22.35
2017-07-31T07:27:14.305Z,22.43
2017-07-31T07:27:39.746Z,22.38
2017-07-31T07:28:05.243Z,22.48
2017-07-31T07:28:30.742Z,22.45
2017-07-31T07:28:56.210Z,22.47
2017-07-31T07:29:21.701Z,22.48
2017-07-31T07:29:47.135Z,22.48
2017-07-31T07:30:12.629Z,22.5
2017-07-31T07:30:38.116Z,22.48
2017-07-31T07:31:03.613Z,22.48
2017-07-31T07:31:29.091Z,22.44
2017-07-31T07:31:54.581Z,22.48
2017-07-31T07:32:20.101Z,22.51
2017-07-31T07:32:45.593Z,22.51
2017-07-31T07:33:11.089Z,22.51
2017-07-31T07:33:36.553Z,22.5
2017-07-31T07:34:02.025Z,22.48
2017-07-31T07:34:27.481Z,22.47
2017-07-31T07:34:52.949Z,22.59
2017-07-31T07:35:18.469Z,22.63
2017-07-31T07:35:43.916Z,22.63
2017-07-31T07:36:09.379Z,22.69
2017-07-31T07:36:34.872Z,22.57
2017-07-31T07:37:00.359Z,22.72
2017-07-31T07:37:25.823Z,22.72
2017-07-31T07:37:51.333Z,22.68
2017-07-31T07:38:16.792Z,22.62
2017-07-31T07:38:42.240Z,22.6
2017-07-31T07:39:50.949Z,22.66
2017-07-31T07:40:16.412Z,22.65
2017-07-31T07:40:41.876Z,22.6
2017-07-31T07:41:07.362Z,22.68
2017-07-31T07:41:32.864Z,22.65
2017-07-31T07:41:58.352Z,22.6
2017-07-31T07:42:23.825Z,22.5
2017-07-31T07:42:49.340Z,22.62
2017-07-31T07:43:14.867Z,22.51
2017-07-31T07:43:40.349Z,22.57
2017-07-31T07:44:05.834Z,22.48
2017-07-31T07:44:31.320Z,22.51
2017-07-31T07:44:56.788Z,22.55
2017-07-31T07:45:22.293Z,22.59
2017-07-31T07:45:47.802Z,22.47
2017-07-31T07:46:13.253Z,22.53
2017-07-31T07:46:38.767Z,22.53
2017-07-31T07:47:04.245Z,22.53
2017-07-31T07:47:29.721Z,22.54
2017-07-31T07:47:55.224Z,22.62
2017-07-31T07:48:20.710Z,22.72
2017-07-31T07:48:46.198Z,22.75
2017-07-31T07:49:11.698Z,22.66
2017-07-31T07:49:37.202Z,22.69
2017-07-31T07:50:02.693Z,22.78
2017-07-31T07:50:28.217Z,22.8
2017-07-31T07:50:53.724Z,22.78
2017-07-31T07:51:19.212Z,22.81
2017-07-31T07:51:44.726Z,22.83
2017-07-31T07:52:10.188Z,22.8
2017-07-31T07:52:35.654Z,22.85
2017-07-31T07:53:01.107Z,22.8
2017-07-31T07:53:26.609Z,22.85
2017-07-31T07:53:52.061Z,22.87
2017-07-31T07:54:17.525Z,22.94
2017-07-31T07:54:43.005Z,22.94
2017-07-31T07:55:08.487Z,22.96
2017-07-31T07:55:33.968Z,23
2017-07-31T07:55:59.450Z,23
2017-07-31T07:56:24.959Z,23.1
2017-07-31T07:56:50.436Z,23.05
2017-07-31T07:57:15.979Z,23.02
2017-07-31T07:57:41.431Z,23.15
2017-07-31T07:58:06.936Z,23.09
2017-07-31T07:58:32.354Z,23.21
2017-07-31T07:58:57.834Z,23.27
2017-07-31T07:59:23.351Z,23.21
2017-07-31T07:59:48.798Z,23.25
2017-07-31T08:00:14.280Z,23.31
2017-07-31T08:00:39.741Z,23.36
2017-07-31T08:01:05.233Z,23.37
2017-07-31T08:01:30.723Z,23.37
2017-07-31T08:01:56.205Z,23.37
2017-07-31T08:02:21.684Z,23.4
2017-07-31T08:02:47.220Z,23.5
2017-07-31T08:03:12.705Z,23.55
2017-07-31T08:03:38.181Z,23.58
2017-07-31T08:04:03.624Z,23.59
2017-07-31T08:04:29.114Z,23.56
2017-07-31T08:04:54.627Z,23.61
2017-07-31T08:05:20.117Z,23.62
2017-07-31T08:05:45.589Z,23.66
2017-07-31T08:06:11.031Z,23.65
2017-07-31T08:06:36.486Z,23.65
2017-07-31T08:07:01.981Z,23.74
2017-07-31T08:07:27.421Z,23.68
2017-07-31T08:07:52.907Z,23.77
2017-07-31T08:08:18.398Z,23.78
2017-07-31T08:08:43.894Z,23.77
2017-07-31T08:09:09.363Z,23.76
2017-07-31T08:09:34.874Z,23.88
2017-07-31T08:10:00.368Z,23.91
2017-07-31T08:10:25.819Z,23.96
2017-07-31T08:10:51.283Z,24.01
2017-07-31T08:11:16.769Z,24.06
2017-07-31T08:11:42.271Z,24.02
2017-07-31T08:12:07.740Z,24.06
2017-07-31T08:12:33.236Z,24.1
2017-07-31T08:12:58.756Z,24.08
2017-07-31T08:13:24.257Z,24.08
2017-07-31T08:13:49.724Z,24.11
2017-07-31T08:14:15.208Z,24.11
2017-07-31T08:14:40.698Z,24.05
2017-07-31T08:15:06.190Z,24.03
2017-07-31T08:15:31.674Z,24.06
2017-07-31T08:15:57.239Z,24.02
2017-07-31T08:16:22.763Z,24.11
2017-07-31T08:16:48.293Z,24.05
2017-07-31T08:17:13.756Z,23.95
2017-07-31T08:17:39.294Z,24.05
2017-07-31T08:18:04.783Z,23.95
2017-07-31T08:18:30.270Z,24.06
2017-07-31T08:19:23.790Z,24.03
2017-07-31T08:19:49.283Z,24.03
2017-07-31T08:20:14.776Z,24.03
2017-07-31T08:20:40.283Z,24.05
2017-07-31T08:21:05.834Z,24.06
2017-07-31T08:21:31.308Z,24.1
2017-07-31T08:21:56.847Z,24.08
2017-07-31T08:22:22.318Z,24.11
2017-07-31T08:22:47.799Z,24.13
2017-07-31T08:23:13.284Z,24.14
2017-07-31T08:23:38.779Z,24.08
2017-07-31T08:24:04.263Z,24.16
2017-07-31T08:24:29.718Z,24.06
2017-07-31T08:24:55.203Z,24.03
2017-07-31T08:25:20.736Z,24.03
2017-07-31T08:25:46.197Z,24.06
2017-07-31T08:26:11.702Z,24.05
2017-07-31T08:26:37.217Z,24.08
2017-07-31T08:27:02.784Z,24.13
2017-07-31T08:27:28.266Z,24.13
2017-07-31T08:27:53.768Z,24.1
2017-07-31T08:28:19.268Z,24.16
2017-07-31T08:28:44.737Z,24.17
2017-07-31T08:29:10.226Z,24.17
2017-07-31T08:29:35.725Z,24.17
2017-07-31T08:30:01.171Z,24.18
2017-07-31T08:30:26.663Z,24.21
2017-07-31T08:30:52.203Z,24.17
2017-07-31T08:31:17.728Z,24.17
2017-07-31T08:31:43.238Z,24.18
2017-07-31T08:32:08.726Z,24.2
2017-07-31T08:32:34.247Z,24.17
2017-07-31T08:32:59.699Z,24.21
2017-07-31T08:33:25.214Z,24.14
2017-07-31T08:33:50.722Z,24.14
2017-07-31T08:34:16.222Z,24.1
2017-07-31T08:34:41.720Z,24.16
2017-07-31T08:35:07.211Z,24.16
2017-07-31T08:35:32.699Z,24.11
2017-07-31T08:35:58.146Z,24.17
2017-07-31T08:36:23.607Z,24.16
2017-07-31T08:36:49.123Z,24.16
2017-07-31T08:37:14.593Z,24.17
2017-07-31T08:37:40.044Z,24.18
2017-07-31T08:38:05.569Z,24.26
2017-07-31T08:38:31.045Z,24.21
2017-07-31T08:38:56.564Z,24.24
2017-07-31T08:39:22.088Z,24.32
2017-07-31T08:39:47.561Z,24.3
2017-07-31T08:40:13.123Z,24.4
2017-07-31T08:40:38.608Z,24.38
2017-07-31T08:41:04.154Z,24.38
2017-07-31T08:41:29.653Z,24.43
2017-07-31T08:41:55.132Z,24.51
2017-07-31T08:42:20.616Z,24.47
2017-07-31T08:42:46.087Z,24.53
2017-07-31T08:43:11.650Z,24.53
2017-07-31T08:43:37.160Z,24.57
2017-07-31T08:44:02.666Z,24.61
2017-07-31T08:44:28.199Z,24.73
2017-07-31T08:44:53.656Z,24.68
2017-07-31T08:45:19.141Z,24.66
2017-07-31T08:45:44.624Z,24.69
2017-07-31T08:46:10.155Z,24.8
2017-07-31T08:46:35.671Z,24.68
2017-07-31T08:47:01.165Z,24.77
2017-07-31T08:47:26.701Z,24.73
2017-07-31T08:47:52.202Z,24.8
2017-07-31T08:48:17.763Z,24.78
2017-07-31T08:48:43.228Z,24.78
2017-07-31T08:49:08.683Z,24.81
2017-07-31T08:49:34.132Z,24.88
2017-07-31T08:49:59.591Z,24.88
2017-07-31T08:50:25.108Z,24.88
2017-07-31T08:50:50.600Z,24.8
2017-07-31T08:51:16.086Z,24.78
2017-07-31T08:51:41.582Z,24.77
2017-07-31T08:52:07.096Z,24.77
2017-07-31T08:53:05.571Z,24.78
2017-07-31T08:53:31.050Z,24.8
2017-07-31T08:53:56.530Z,24.89
2017-07-31T08:54:21.988Z,24.77
2017-07-31T08:54:47.465Z,24.74
2017-07-31T08:55:12.925Z,24.7
2017-07-31T08:55:38.417Z,24.65
2017-07-31T08:56:03.933Z,24.66
2017-07-31T08:56:29.386Z,24.68
2017-07-31T08:56:54.954Z,24.69
2017-07-31T08:57:20.424Z,24.69
2017-07-31T08:57:45.863Z,24.61
2017-07-31T08:58:11.330Z,24.66
2017-07-31T08:58:36.764Z,24.6
2017-07-31T08:59:02.257Z,24.68
2017-07-31T08:59:27.741Z,24.55
2017-07-31T08:59:53.225Z,24.51
2017-07-31T09:00:18.668Z,24.66
2017-07-31T09:00:44.181Z,24.53
2017-07-31T09:01:09.661Z,24.66
2017-07-31T09:01:35.119Z,24.61
2017-07-31T09:02:00.609Z,24.69
2017-07-31T09:02:26.114Z,24.69
2017-07-31T09:02:51.590Z,24.74
2017-07-31T09:03:17.057Z,24.81
2017-07-31T09:03:42.515Z,24.81
2017-07-31T09:04:08.008Z,24.78
2017-07-31T09:04:33.454Z,24.88
2017-07-31T09:04:58.986Z,24.91
2017-07-31T09:05:24.491Z,24.95
2017-07-31T09:05:49.971Z,24.92
2017-07-31T09:06:15.425Z,24.95
2017-07-31T09:06:40.922Z,24.91
2017-07-31T09:07:06.405Z,24.95
2017-07-31T09:07:31.870Z,24.95
2017-07-31T09:07:57.367Z,24.99
2017-07-31T09:08:22.872Z,24.98
2017-07-31T09:08:48.328Z,25.03
2017-07-31T09:09:13.843Z,24.99
2017-07-31T09:09:39.303Z,24.99
2017-07-31T09:10:04.782Z,24.98
2017-07-31T09:10:30.282Z,25.01
2017-07-31T09:10:55.761Z,24.96
2017-07-31T09:11:21.225Z,25.03
2017-07-31T09:11:46.727Z,25.13
2017-07-31T09:12:12.190Z,25.08
2017-07-31T09:12:37.705Z,25.07
2017-07-31T09:13:03.181Z,25.06
2017-07-31T09:13:28.622Z,25.11
2017-07-31T09:13:54.156Z,25.11
2017-07-31T09:14:19.642Z,25.13
2017-07-31T09:14:45.135Z,25.26
2017-07-31T09:15:10.597Z,25.22
2017-07-31T09:15:36.064Z,25.23
2017-07-31T09:16:01.544Z,25.22
2017-07-31T09:16:27.030Z,25.28
2017-07-31T09:16:52.516Z,25.31
2017-07-31T09:17:18.011Z,25.31
2017-07-31T09:17:43.508Z,25.36
2017-07-31T09:18:08.968Z,25.4
2017-07-31T09:18:34.461Z,25.4
2017-07-31T09:18:59.953Z,25.33
2017-07-31T09:19:25.440Z,25.35
2017-07-31T09:19:50.921Z,25.33
2017-07-31T09:20:16.375Z,25.43
2017-07-31T09:20:41.860Z,25.51
2017-07-31T09:21:07.347Z,25.48
2017-07-31T09:21:32.803Z,25.48
2017-07-31T09:21:58.270Z,25.43
2017-07-31T09:22:23.780Z,25.47
2017-07-31T09:22:49.247Z,25.58
2017-07-31T09:23:14.725Z,25.55
2017-07-31T09:23:40.233Z,25.51
2017-07-31T09:24:05.714Z,25.55
2017-07-31T09:24:31.172Z,25.6
2017-07-31T09:24:56.658Z,25.51
2017-07-31T09:25:22.121Z,25.59
2017-07-31T09:25:47.616Z,25.59
2017-07-31T09:26:13.065Z,25.59
2017-07-31T09:26:38.551Z,25.69
2017-07-31T09:27:04.028Z,25.68
2017-07-31T09:27:29.521Z,25.63
2017-07-31T09:27:55.010Z,25.62
2017-07-31T09:28:20.495Z,25.66
2017-07-31T09:28:45.990Z,25.63
2017-07-31T09:29:11.473Z,25.63
2017-07-31T09:29:36.940Z,25.66
2017-07-31T09:30:02.424Z,25.66
2017-07-31T09:30:27.934Z,25.69
2017-07-31T09:30:53.436Z,25.72
2017-07-31T09:31:18.954Z,25.66
2017-07-31T09:31:44.369Z,25.69
2017-07-31T09:32:09.858Z,25.65
2017-07-31T09:32:35.347Z,25.6
2017-07-31T09:33:00.824Z,25.66
2017-07-31T09:33:26.296Z,25.6
2017-07-31T09:33:51.760Z,25.63
2017-07-31T09:34:17.221Z,25.69
2017-07-31T09:34:42.685Z,25.66
2017-07-31T09:35:08.183Z,25.55
2017-07-31T09:35:33.653Z,25.59
2017-07-31T09:35:59.123Z,25.62
2017-07-31T09:36:24.621Z,25.68
2017-07-31T09:36:50.091Z,25.54
2017-07-31T09:37:15.575Z,25.63
2017-07-31T09:37:41.033Z,25.58
2017-07-31T09:38:06.540Z,25.66
2017-07-31T09:38:32.061Z,25.69
2017-07-31T09:38:57.540Z,25.66
2017-07-31T09:39:23.032Z,25.72
2017-07-31T09:39:48.506Z,25.78
2017-07-31T09:40:13.998Z,25.77
2017-07-31T09:40:39.479Z,25.78
2017-07-31T09:41:04.957Z,25.75
2017-07-31T09:41:30.416Z,25.83
2017-07-31T09:41:55.888Z,25.81
2017-07-31T09:42:21.408Z,25.9
2017-07-31T09:42:46.951Z,25.83
2017-07-31T09:43:12.382Z,25.9
2017-07-31T09:43:37.864Z,25.85
2017-07-31T09:44:03.332Z,25.9
2017-07-31T09:44:28.834Z,25.88
2017-07-31T09:44:54.323Z,25.91
2017-07-31T09:45:19.815Z,25.85
2017-07-31T09:45:45.298Z,25.9
2017-07-31T09:46:10.769Z,25.96
2017-07-31T09:46:36.264Z,25.95
2017-07-31T09:47:01.715Z,26
2017-07-31T09:47:27.168Z,26.03
2017-07-31T09:47:52.660Z,26.06
2017-07-31T09:48:18.103Z,25.99
2017-07-31T09:48:43.591Z,26.02
2017-07-31T09:49:09.045Z,26.16
2017-07-31T09:50:17.778Z,26.13
2017-07-31T09:50:43.249Z,26.15
2017-07-31T09:51:08.730Z,26.19
2017-07-31T09:51:34.200Z,26.25
2017-07-31T09:51:59.668Z,26.19
2017-07-31T09:52:25.176Z,26.28
2017-07-31T09:52:50.686Z,26.21
2017-07-31T09:53:16.165Z,26.25
2017-07-31T09:53:41.697Z,26.33
2017-07-31T09:54:07.183Z,26.21
2017-07-31T09:54:32.634Z,26.16
2017-07-31T09:54:58.080Z,26.23
2017-07-31T09:55:23.640Z,26.23
2017-07-31T09:55:49.063Z,26.21
2017-07-31T09:56:14.532Z,26.25
2017-07-31T09:56:40.062Z,26.19
2017-07-31T09:57:05.553Z,26.19
2017-07-31T09:57:31.042Z,26.16
2017-07-31T09:57:56.561Z,26.25
2017-07-31T09:58:21.988Z,26.25
2017-07-31T09:58:47.458Z,26.21
2017-07-31T09:59:12.920Z,26.36
2017-07-31T09:59:38.419Z,26.28
2017-07-31T10:00:03.871Z,26.34
2017-07-31T10:00:29.339Z,26.38
2017-07-31T10:00:54.802Z,26.36
2017-07-31T10:01:20.270Z,26.38
2017-07-31T10:01:45.750Z,26.29
2017-07-31T10:02:11.228Z,26.31
2017-07-31T10:02:36.703Z,26.29
2017-07-31T10:03:02.206Z,26.26
2017-07-31T10:03:27.703Z,26.28
2017-07-31T10:03:53.201Z,26.29
2017-07-31T10:04:18.695Z,26.28
2017-07-31T10:04:44.165Z,26.34
2017-07-31T10:05:09.630Z,26.23
2017-07-31T10:05:35.135Z,26.34
2017-07-31T10:06:00.668Z,26.34
2017-07-31T10:06:26.120Z,26.43
2017-07-31T10:06:51.601Z,26.41
2017-07-31T10:07:17.079Z,26.44
2017-07-31T10:07:42.578Z,26.43
2017-07-31T10:08:08.069Z,26.45
2017-07-31T10:09:16.769Z,26.48
2017-07-31T10:09:42.237Z,26.6
2017-07-31T10:10:07.715Z,26.63
2017-07-31T10:10:33.170Z,26.65
2017-07-31T10:10:58.661Z,26.66
2017-07-31T10:11:24.164Z,26.75
2017-07-31T10:11:49.660Z,26.74
2017-07-31T10:12:15.166Z,26.74
2017-07-31T10:12:40.673Z,26.74
2017-07-31T10:13:06.123Z,26.71
2017-07-31T10:13:31.600Z,26.84
2017-07-31T10:13:57.081Z,26.8
2017-07-31T10:14:22.587Z,26.83
2017-07-31T10:14:48.087Z,26.84
2017-07-31T10:15:13.560Z,26.83
2017-07-31T10:15:39.029Z,26.85
2017-07-31T10:16:04.490Z,26.8
2017-07-31T10:16:30.003Z,26.83
2017-07-31T10:16:55.497Z,26.85
2017-07-31T10:17:20.954Z,26.85
2017-07-31T10:17:46.444Z,26.92
2017-07-31T10:18:11.912Z,26.92
2017-07-31T10:18:37.362Z,26.9
2017-07-31T10:19:02.874Z,26.9
2017-07-31T10:19:28.319Z,26.88
2017-07-31T10:19:53.820Z,26.93
2017-07-31T10:20:19.285Z,26.92
2017-07-31T10:20:44.738Z,26.93
2017-07-31T10:21:10.224Z,26.97
2017-07-31T10:21:35.718Z,26.93
2017-07-31T10:22:01.188Z,26.9
2017-07-31T10:22:26.682Z,26.9
2017-07-31T10:22:52.113Z,26.96
2017-07-31T10:23:17.595Z,26.95
2017-07-31T10:23:43.074Z,26.97
2017-07-31T10:24:08.576Z,26.95
2017-07-31T10:24:34.023Z,26.93
2017-07-31T10:24:59.581Z,26.93
2017-07-31T10:25:25.078Z,26.92
2017-07-31T10:25:50.561Z,26.92
2017-07-31T10:26:16.027Z,26.9
2017-07-31T10:26:41.555Z,26.95
2017-07-31T10:27:07.059Z,26.96
2017-07-31T10:27:32.551Z,26.93
2017-07-31T10:27:58.036Z,26.93
2017-07-31T10:28:23.481Z,26.93
2017-07-31T10:28:48.975Z,26.92
2017-07-31T10:29:14.472Z,26.92
2017-07-31T10:29:39.984Z,26.93
2017-07-31T10:30:05.443Z,26.93
2017-07-31T10:30:30.971Z,26.83
2017-07-31T10:30:56.456Z,26.84
2017-07-31T10:31:22.021Z,26.88
2017-07-31T10:31:47.506Z,26.78
2017-07-31T10:32:12.950Z,26.88
2017-07-31T10:32:38.451Z,26.75
2017-07-31T10:33:03.951Z,26.9
2017-07-31T10:33:29.452Z,26.75
2017-07-31T10:33:54.928Z,26.71
2017-07-31T10:34:20.425Z,26.74
2017-07-31T10:34:45.933Z,26.78
2017-07-31T10:35:11.413Z,26.75
2017-07-31T10:35:36.932Z,26.83
2017-07-31T10:36:02.382Z,26.74
2017-07-31T10:36:27.853Z,26.73
2017-07-31T10:36:53.332Z,26.73
2017-07-31T10:37:18.781Z,26.73
2017-07-31T10:37:44.292Z,26.75
2017-07-31T10:38:09.797Z,26.73
2017-07-31T10:38:35.308Z,26.73
2017-07-31T10:39:00.802Z,26.8
2017-07-31T10:39:26.266Z,26.75
2017-07-31T10:39:51.716Z,26.8
2017-07-31T10:40:17.202Z,26.75
2017-07-31T10:40:42.698Z,26.71
2017-07-31T10:41:08.183Z,26.75
2017-07-31T10:41:33.705Z,26.84
2017-07-31T10:41:59.196Z,26.75
2017-07-31T10:42:24.658Z,26.83
2017-07-31T10:42:50.124Z,26.85
2017-07-31T10:43:15.610Z,26.81
2017-07-31T10:43:41.082Z,26.88
2017-07-31T10:44:06.586Z,26.78
2017-07-31T10:44:32.050Z,26.83
2017-07-31T10:44:57.565Z,26.88
2017-07-31T10:45:23.023Z,26.77
2017-07-31T10:45:48.528Z,26.74
2017-07-31T10:46:13.996Z,26.8
2017-07-31T10:46:39.468Z,26.85
2017-07-31T10:47:04.963Z,26.85
2017-07-31T10:47:30.481Z,26.83
2017-07-31T10:47:56.029Z,26.88
2017-07-31T10:49:04.755Z,26.83
2017-07-31T10:49:30.221Z,26.9
2017-07-31T10:49:55.690Z,26.93
2017-07-31T10:50:21.157Z,26.95
2017-07-31T10:50:46.615Z,26.9
2017-07-31T10:51:12.094Z,26.92
2017-07-31T10:51:37.562Z,26.9
2017-07-31T10:52:03.040Z,26.96
2017-07-31T10:52:28.483Z,26.9
2017-07-31T10:52:53.948Z,26.96
2017-07-31T10:53:19.425Z,26.93
2017-07-31T10:53:44.933Z,26.96
2017-07-31T10:54:10.423Z,26.9
2017-07-31T10:54:35.873Z,26.93
2017-07-31T10:55:01.336Z,26.95
2017-07-31T10:55:26.817Z,26.92
2017-07-31T10:55:52.310Z,26.93
2017-07-31T10:56:17.795Z,26.92
2017-07-31T10:56:43.316Z,26.9
2017-07-31T10:57:08.775Z,27.03
2017-07-31T10:57:34.295Z,27.07
2017-07-31T10:57:59.760Z,26.99
2017-07-31T10:58:25.262Z,27.03
2017-07-31T10:58:50.736Z,27
2017-07-31T10:59:16.217Z,26.97
2017-07-31T10:59:41.699Z,26.99
2017-07-31T11:00:07.154Z,26.97
2017-07-31T11:00:32.631Z,27.07
2017-07-31T11:00:58.067Z,26.97
2017-07-31T11:01:23.555Z,27.02
2017-07-31T11:01:49.071Z,27.03
2017-07-31T11:02:14.579Z,27.05
2017-07-31T11:02:40.075Z,27.05
2017-07-31T11:03:05.558Z,27.07
2017-07-31T11:03:31.006Z,27.08
2017-07-31T11:03:56.491Z,27.1
2017-07-31T11:04:21.975Z,27